sensor_id;sensor_type;location;lat;lon;timestamp;P1;durP1;ratioP1;P2;durP2;ratioP2
66400;SDS011;53211;45.040;38.788;2023-02-01T00:01:55;616.05;;;176.85;;
66400;SDS011;53211;45.040;38.788;2023-02-01T00:04:22;608.00;;;174.95;;
66400;SDS011;53211;45.040;38.788;2023-02-01T00:06:48;624.40;;;167.20;;
66400;SDS011;53211;45.040;38.788;2023-02-01T00:09:14;621.40;;;170.55;;
66400;SDS011;53211;45.040;38.788;2023-02-01T00:11:40;623.07;;;163.27;;
66400;SDS011;53211;45.040;38.788;2023-02-01T00:14:06;628.83;;;163.40;;
66400;SDS011;53211;45.040;38.788;2023-02-01T00:16:33;628.80;;;165.70;;
66400;SDS011;53211;45.040;38.788;2023-02-01T00:19:01;627.10;;;165.90;;
66400;SDS011;53211;45.040;38.788;2023-02-01T00:21:29;625.10;;;166.10;;
66400;SDS011;53211;45.040;38.788;2023-02-01T00:23:56;622.45;;;165.40;;
66400;SDS011;53211;45.040;38.788;2023-02-01T00:26:27;627.50;;;165.40;;
66400;SDS011;53211;45.040;38.788;2023-02-01T00:29:00;626.03;;;165.47;;
66400;SDS011;53211;45.040;38.788;2023-02-01T00:31:27;618.35;;;166.25;;
66400;SDS011;53211;45.040;38.788;2023-02-01T00:33:53;625.77;;;166.70;;
66400;SDS011;53211;45.040;38.788;2023-02-01T00:36:19;623.40;;;165.45;;
66400;SDS011;53211;45.040;38.788;2023-02-01T00:38:45;624.33;;;165.23;;
66400;SDS011;53211;45.040;38.788;2023-02-01T00:41:12;626.45;;;165.55;;
66400;SDS011;53211;45.040;38.788;2023-02-01T00:43:40;626.45;;;167.45;;
66400;SDS011;53211;45.040;38.788;2023-02-01T00:46:06;623.05;;;165.90;;
66400;SDS011;53211;45.040;38.788;2023-02-01T00:48:33;627.50;;;166.00;;
66400;SDS011;53211;45.040;38.788;2023-02-01T00:51:02;629.50;;;172.40;;
66400;SDS011;53211;45.040;38.788;2023-02-01T00:53:30;630.45;;;165.45;;
66400;SDS011;53211;45.040;38.788;2023-02-01T00:55:57;632.15;;;166.50;;
66400;SDS011;53211;45.040;38.788;2023-02-01T00:58:25;626.00;;;164.30;;
66400;SDS011;53211;45.040;38.788;2023-02-01T01:01:26;626.30;;;165.60;;
66400;SDS011;53211;45.040;38.788;2023-02-01T01:03:50;629.40;;;165.60;;
66400;SDS011;53211;45.040;38.788;2023-02-01T01:06:19;630.85;;;167.05;;
66400;SDS011;53211;45.040;38.788;2023-02-01T01:08:47;648.40;;;154.70;;
66400;SDS011;53211;45.040;38.788;2023-02-01T01:11:17;627.57;;;161.60;;
66400;SDS011;53211;45.040;38.788;2023-02-01T01:13:46;640.60;;;160.20;;
66400;SDS011;53211;45.040;38.788;2023-02-01T01:16:13;634.80;;;156.35;;
66400;SDS011;53211;45.040;38.788;2023-02-01T01:18:40;638.10;;;158.70;;
66400;SDS011;53211;45.040;38.788;2023-02-01T01:21:08;632.35;;;160.40;;
66400;SDS011;53211;45.040;38.788;2023-02-01T01:23:35;631.80;;;163.85;;
66400;SDS011;53211;45.040;38.788;2023-02-01T01:26:04;618.75;;;168.40;;
66400;SDS011;53211;45.040;38.788;2023-02-01T01:28:31;630.90;;;159.80;;
66400;SDS011;53211;45.040;38.788;2023-02-01T01:30:58;634.30;;;162.50;;
66400;SDS011;53211;45.040;38.788;2023-02-01T01:33:23;631.20;;;160.20;;
66400;SDS011;53211;45.040;38.788;2023-02-01T01:35:49;644.35;;;159.05;;
66400;SDS011;53211;45.040;38.788;2023-02-01T01:38:15;636.30;;;164.15;;
66400;SDS011;53211;45.040;38.788;2023-02-01T01:40:44;633.75;;;162.95;;
66400;SDS011;53211;45.040;38.788;2023-02-01T01:43:13;635.10;;;169.40;;
66400;SDS011;53211;45.040;38.788;2023-02-01T01:45:45;630.40;;;168.75;;
66400;SDS011;53211;45.040;38.788;2023-02-01T01:51:00;633.08;;;162.55;;
66400;SDS011;53211;45.040;38.788;2023-02-01T01:53:36;633.20;;;162.40;;
66400;SDS011;53211;45.040;38.788;2023-02-01T01:56:07;633.10;;;161.90;;
66400;SDS011;53211;45.040;38.788;2023-02-01T01:58:33;637.60;;;159.53;;
66400;SDS011;53211;45.040;38.788;2023-02-01T02:01:00;637.57;;;157.90;;
66400;SDS011;53211;45.040;38.788;2023-02-01T02:06:00;640.97;;;155.30;;
66400;SDS011;53211;45.040;38.788;2023-02-01T02:08:29;623.77;;;162.33;;
66400;SDS011;53211;45.040;38.788;2023-02-01T02:10:55;620.30;;;163.70;;
66400;SDS011;53211;45.040;38.788;2023-02-01T02:13:25;623.33;;;164.13;;
66400;SDS011;53211;45.040;38.788;2023-02-01T02:18:48;620.45;;;163.50;;
66400;SDS011;53211;45.040;38.788;2023-02-01T02:35:45;643.25;;;155.95;;
66400;SDS011;53211;45.040;38.788;2023-02-01T02:41:08;621.13;;;164.03;;
66400;SDS011;53211;45.040;38.788;2023-02-01T02:44:12;625.40;;;159.90;;
66400;SDS011;53211;45.040;38.788;2023-02-01T02:47:23;633.65;;;157.55;;
66400;SDS011;53211;45.040;38.788;2023-02-01T02:53:11;634.65;;;157.40;;
66400;SDS011;53211;45.040;38.788;2023-02-01T02:56:00;638.10;;;156.00;;
66400;SDS011;53211;45.040;38.788;2023-02-01T02:58:47;631.80;;;154.80;;
66400;SDS011;53211;45.040;38.788;2023-02-01T03:01:33;635.20;;;156.60;;
66400;SDS011;53211;45.040;38.788;2023-02-01T03:04:17;636.30;;;155.20;;
66400;SDS011;53211;45.040;38.788;2023-02-01T03:06:47;635.77;;;156.70;;
66400;SDS011;53211;45.040;38.788;2023-02-01T03:09:19;634.53;;;153.73;;
66400;SDS011;53211;45.040;38.788;2023-02-01T03:11:52;627.10;;;156.30;;
66400;SDS011;53211;45.040;38.788;2023-02-01T03:14:46;623.60;;;159.30;;
66400;SDS011;53211;45.040;38.788;2023-02-01T03:17:18;660.55;;;150.85;;
66400;SDS011;53211;45.040;38.788;2023-02-01T03:19:48;633.17;;;160.47;;
66400;SDS011;53211;45.040;38.788;2023-02-01T03:22:18;621.30;;;161.30;;
66400;SDS011;53211;45.040;38.788;2023-02-01T03:24:54;628.03;;;158.17;;
66400;SDS011;53211;45.040;38.788;2023-02-01T03:33:02;624.30;;;158.55;;
66400;SDS011;53211;45.040;38.788;2023-02-01T03:40:56;622.33;;;162.57;;
66400;SDS011;53211;45.040;38.788;2023-02-01T03:43:33;624.65;;;161.70;;
66400;SDS011;53211;45.040;38.788;2023-02-01T03:46:12;622.10;;;161.00;;
66400;SDS011;53211;45.040;38.788;2023-02-01T03:48:42;622.80;;;161.30;;
66400;SDS011;53211;45.040;38.788;2023-02-01T03:51:10;619.05;;;164.55;;
66400;SDS011;53211;45.040;38.788;2023-02-01T03:53:36;623.35;;;163.80;;
66400;SDS011;53211;45.040;38.788;2023-02-01T03:56:05;616.25;;;166.40;;
66400;SDS011;53211;45.040;38.788;2023-02-01T03:58:32;597.70;;;174.93;;
66400;SDS011;53211;45.040;38.788;2023-02-01T04:00:58;595.30;;;176.20;;
66400;SDS011;53211;45.040;38.788;2023-02-01T04:03:29;597.20;;;175.35;;
66400;SDS011;53211;45.040;38.788;2023-02-01T04:05:56;613.37;;;167.10;;
66400;SDS011;53211;45.040;38.788;2023-02-01T04:08:25;616.95;;;165.55;;
66400;SDS011;53211;45.040;38.788;2023-02-01T04:10:51;619.20;;;163.60;;
66400;SDS011;53211;45.040;38.788;2023-02-01T04:13:17;618.75;;;166.10;;
66400;SDS011;53211;45.040;38.788;2023-02-01T04:15:43;620.00;;;164.70;;
66400;SDS011;53211;45.040;38.788;2023-02-01T04:18:09;617.30;;;165.20;;
66400;SDS011;53211;45.040;38.788;2023-02-01T04:20:35;614.30;;;165.50;;
66400;SDS011;53211;45.040;38.788;2023-02-01T04:23:00;609.70;;;164.30;;
66400;SDS011;53211;45.040;38.788;2023-02-01T04:25:28;616.00;;;167.57;;
66400;SDS011;53211;45.040;38.788;2023-02-01T04:27:54;617.27;;;165.17;;
66400;SDS011;53211;45.040;38.788;2023-02-01T04:30:20;615.10;;;167.30;;
66400;SDS011;53211;45.040;38.788;2023-02-01T04:32:46;609.07;;;168.07;;
66400;SDS011;53211;45.040;38.788;2023-02-01T04:35:14;610.20;;;167.50;;
66400;SDS011;53211;45.040;38.788;2023-02-01T04:37:40;604.40;;;170.00;;
66400;SDS011;53211;45.040;38.788;2023-02-01T04:40:06;613.00;;;169.10;;
66400;SDS011;53211;45.040;38.788;2023-02-01T04:42:32;604.23;;;175.53;;
66400;SDS011;53211;45.040;38.788;2023-02-01T04:44:58;599.90;;;178.75;;
66400;SDS011;53211;45.040;38.788;2023-02-01T04:47:24;596.33;;;185.23;;
66400;SDS011;53211;45.040;38.788;2023-02-01T04:49:49;582.55;;;193.25;;
66400;SDS011;53211;45.040;38.788;2023-02-01T04:52:15;564.25;;;212.55;;
66400;SDS011;53211;45.040;38.788;2023-02-01T04:54:41;558.30;;;213.40;;
66400;SDS011;53211;45.040;38.788;2023-02-01T04:57:07;573.42;;;193.50;;
66400;SDS011;53211;45.040;38.788;2023-02-01T04:59:33;592.57;;;186.33;;
66400;SDS011;53211;45.040;38.788;2023-02-01T05:01:59;568.47;;;212.88;;
66400;SDS011;53211;45.040;38.788;2023-02-01T05:04:25;554.97;;;225.13;;
66400;SDS011;53211;45.040;38.788;2023-02-01T05:06:51;567.80;;;213.10;;
66400;SDS011;53211;45.040;38.788;2023-02-01T05:09:17;554.95;;;228.00;;
66400;SDS011;53211;45.040;38.788;2023-02-01T05:11:43;569.03;;;208.73;;
66400;SDS011;53211;45.040;38.788;2023-02-01T05:14:27;579.05;;;196.80;;
66400;SDS011;53211;45.040;38.788;2023-02-01T05:16:53;573.20;;;203.30;;
66400;SDS011;53211;45.040;38.788;2023-02-01T05:19:19;582.20;;;187.25;;
66400;SDS011;53211;45.040;38.788;2023-02-01T05:21:45;591.20;;;184.20;;
66400;SDS011;53211;45.040;38.788;2023-02-01T05:24:11;614.40;;;165.60;;
66400;SDS011;53211;45.040;38.788;2023-02-01T05:26:46;615.00;;;164.65;;
66400;SDS011;53211;45.040;38.788;2023-02-01T05:29:13;612.50;;;166.00;;
66400;SDS011;53211;45.040;38.788;2023-02-01T05:31:40;562.10;;;207.60;;
66400;SDS011;53211;45.040;38.788;2023-02-01T05:34:06;572.25;;;206.00;;
66400;SDS011;53211;45.040;38.788;2023-02-01T05:36:32;586.10;;;189.05;;
66400;SDS011;53211;45.040;38.788;2023-02-01T05:38:59;588.50;;;186.30;;
66400;SDS011;53211;45.040;38.788;2023-02-01T05:41:24;573.37;;;204.13;;
66400;SDS011;53211;45.040;38.788;2023-02-01T05:43:50;571.00;;;206.70;;
66400;SDS011;53211;45.040;38.788;2023-02-01T05:46:16;589.20;;;186.95;;
66400;SDS011;53211;45.040;38.788;2023-02-01T05:48:42;607.35;;;176.25;;
66400;SDS011;53211;45.040;38.788;2023-02-01T05:51:09;593.05;;;183.15;;
66400;SDS011;53211;45.040;38.788;2023-02-01T05:53:35;619.70;;;166.15;;
66400;SDS011;53211;45.040;38.788;2023-02-01T05:56:01;589.27;;;184.30;;
66400;SDS011;53211;45.040;38.788;2023-02-01T05:58:29;588.95;;;184.35;;
66400;SDS011;53211;45.040;38.788;2023-02-01T06:00:59;587.83;;;185.67;;
66400;SDS011;53211;45.040;38.788;2023-02-01T06:03:25;589.15;;;185.25;;
66400;SDS011;53211;45.040;38.788;2023-02-01T06:05:52;593.10;;;181.90;;
66400;SDS011;53211;45.040;38.788;2023-02-01T06:08:18;588.30;;;176.90;;
66400;SDS011;53211;45.040;38.788;2023-02-01T06:10:44;592.70;;;183.05;;
66400;SDS011;53211;45.040;38.788;2023-02-01T06:13:10;604.33;;;176.63;;
66400;SDS011;53211;45.040;38.788;2023-02-01T06:15:36;598.75;;;178.90;;
66400;SDS011;53211;45.040;38.788;2023-02-01T06:18:07;597.25;;;180.80;;
66400;SDS011;53211;45.040;38.788;2023-02-01T06:20:33;596.37;;;181.93;;
66400;SDS011;53211;45.040;38.788;2023-02-01T06:22:59;603.35;;;179.30;;
66400;SDS011;53211;45.040;38.788;2023-02-01T06:25:25;599.75;;;175.85;;
66400;SDS011;53211;45.040;38.788;2023-02-01T06:27:51;601.80;;;177.70;;
66400;SDS011;53211;45.040;38.788;2023-02-01T06:30:17;589.95;;;185.25;;
66400;SDS011;53211;45.040;38.788;2023-02-01T06:32:44;601.13;;;177.77;;
66400;SDS011;53211;45.040;38.788;2023-02-01T06:35:10;603.40;;;173.40;;
66400;SDS011;53211;45.040;38.788;2023-02-01T06:37:42;605.60;;;177.83;;
66400;SDS011;53211;45.040;38.788;2023-02-01T06:40:08;603.90;;;175.15;;
66400;SDS011;53211;45.040;38.788;2023-02-01T06:42:35;604.50;;;172.80;;
66400;SDS011;53211;45.040;38.788;2023-02-01T06:45:01;606.10;;;173.33;;
66400;SDS011;53211;45.040;38.788;2023-02-01T06:47:27;605.40;;;172.10;;
66400;SDS011;53211;45.040;38.788;2023-02-01T06:49:54;622.65;;;161.95;;
66400;SDS011;53211;45.040;38.788;2023-02-01T06:52:19;609.65;;;172.00;;
66400;SDS011;53211;45.040;38.788;2023-02-01T06:54:48;606.20;;;174.55;;
66400;SDS011;53211;45.040;38.788;2023-02-01T06:57:14;609.75;;;173.00;;
66400;SDS011;53211;45.040;38.788;2023-02-01T06:59:40;617.80;;;167.70;;
66400;SDS011;53211;45.040;38.788;2023-02-01T07:02:08;577.10;;;197.30;;
66400;SDS011;53211;45.040;38.788;2023-02-01T07:04:36;581.25;;;195.00;;
66400;SDS011;53211;45.040;38.788;2023-02-01T07:07:01;585.25;;;188.05;;
66400;SDS011;53211;45.040;38.788;2023-02-01T07:09:27;606.13;;;173.33;;
66400;SDS011;53211;45.040;38.788;2023-02-01T07:11:53;593.40;;;184.55;;
66400;SDS011;53211;45.040;38.788;2023-02-01T07:14:19;592.80;;;188.00;;
66400;SDS011;53211;45.040;38.788;2023-02-01T07:16:45;593.13;;;186.77;;
66400;SDS011;53211;45.040;38.788;2023-02-01T07:19:12;596.33;;;181.97;;
66400;SDS011;53211;45.040;38.788;2023-02-01T07:21:38;597.47;;;181.30;;
66400;SDS011;53211;45.040;38.788;2023-02-01T07:24:04;596.00;;;182.10;;
66400;SDS011;53211;45.040;38.788;2023-02-01T07:26:33;623.70;;;170.40;;
66400;SDS011;53211;45.040;38.788;2023-02-01T07:28:59;612.50;;;176.87;;
66400;SDS011;53211;45.040;38.788;2023-02-01T07:31:25;610.35;;;178.40;;
66400;SDS011;53211;45.040;38.788;2023-02-01T07:33:51;586.20;;;189.45;;
66400;SDS011;53211;45.040;38.788;2023-02-01T07:36:17;590.60;;;189.07;;
66400;SDS011;53211;45.040;38.788;2023-02-01T07:38:44;615.10;;;176.45;;
66400;SDS011;53211;45.040;38.788;2023-02-01T07:41:14;631.25;;;193.05;;
66400;SDS011;53211;45.040;38.788;2023-02-01T07:43:41;588.20;;;192.15;;
66400;SDS011;53211;45.040;38.788;2023-02-01T07:46:07;587.10;;;189.30;;
66400;SDS011;53211;45.040;38.788;2023-02-01T07:48:35;585.80;;;190.75;;
66400;SDS011;53211;45.040;38.788;2023-02-01T07:51:05;593.77;;;199.13;;
66400;SDS011;53211;45.040;38.788;2023-02-01T07:53:34;589.40;;;189.10;;
66400;SDS011;53211;45.040;38.788;2023-02-01T07:56:00;590.20;;;190.60;;
66400;SDS011;53211;45.040;38.788;2023-02-01T07:58:27;585.70;;;192.60;;
66400;SDS011;53211;45.040;38.788;2023-02-01T08:00:53;605.15;;;182.90;;
66400;SDS011;53211;45.040;38.788;2023-02-01T08:03:38;630.83;;;163.90;;
66400;SDS011;53211;45.040;38.788;2023-02-01T08:06:04;631.77;;;164.10;;
66400;SDS011;53211;45.040;38.788;2023-02-01T08:08:30;629.15;;;166.80;;
66400;SDS011;53211;45.040;38.788;2023-02-01T08:10:59;629.30;;;165.95;;
66400;SDS011;53211;45.040;38.788;2023-02-01T08:13:26;601.17;;;181.50;;
66400;SDS011;53211;45.040;38.788;2023-02-01T08:15:52;634.60;;;165.00;;
66400;SDS011;53211;45.040;38.788;2023-02-01T08:18:22;636.67;;;162.73;;
66400;SDS011;53211;45.040;38.788;2023-02-01T08:20:48;636.50;;;167.50;;
66400;SDS011;53211;45.040;38.788;2023-02-01T08:32:58;612.35;;;182.55;;
66400;SDS011;53211;45.040;38.788;2023-02-01T08:35:24;640.20;;;165.50;;
66400;SDS011;53211;45.040;38.788;2023-02-01T08:37:50;640.80;;;165.80;;
66400;SDS011;53211;45.040;38.788;2023-02-01T08:40:16;643.45;;;165.40;;
66400;SDS011;53211;45.040;38.788;2023-02-01T08:42:42;650.40;;;162.80;;
66400;SDS011;53211;45.040;38.788;2023-02-01T08:45:17;651.60;;;162.10;;
66400;SDS011;53211;45.040;38.788;2023-02-01T08:47:49;651.90;;;163.00;;
66400;SDS011;53211;45.040;38.788;2023-02-01T08:50:16;625.93;;;174.33;;
66400;SDS011;53211;45.040;38.788;2023-02-01T08:52:42;648.20;;;164.15;;
66400;SDS011;53211;45.040;38.788;2023-02-01T08:55:09;624.13;;;178.20;;
66400;SDS011;53211;45.040;38.788;2023-02-01T08:57:35;621.90;;;178.85;;
66400;SDS011;53211;45.040;38.788;2023-02-01T09:00:02;621.17;;;178.02;;
66400;SDS011;53211;45.040;38.788;2023-02-01T09:02:30;621.33;;;178.93;;
66400;SDS011;53211;45.040;38.788;2023-02-01T09:04:56;619.07;;;182.63;;
66400;SDS011;53211;45.040;38.788;2023-02-01T09:07:22;620.40;;;178.35;;
66400;SDS011;53211;45.040;38.788;2023-02-01T09:09:48;638.28;;;170.10;;
66400;SDS011;53211;45.040;38.788;2023-02-01T09:12:14;619.65;;;182.50;;
66400;SDS011;53211;45.040;38.788;2023-02-01T09:14:40;633.40;;;174.73;;
66400;SDS011;53211;45.040;38.788;2023-02-01T09:17:06;620.75;;;183.05;;
66400;SDS011;53211;45.040;38.788;2023-02-01T09:19:32;623.35;;;183.05;;
66400;SDS011;53211;45.040;38.788;2023-02-01T09:21:58;618.63;;;185.87;;
66400;SDS011;53211;45.040;38.788;2023-02-01T09:24:24;624.80;;;188.40;;
66400;SDS011;53211;45.040;38.788;2023-02-01T10:09:43;661.05;;;165.50;;
66400;SDS011;53211;45.040;38.788;2023-02-01T10:23:32;669.75;;;162.35;;
66400;SDS011;53211;45.040;38.788;2023-02-01T10:26:04;668.85;;;161.50;;
66400;SDS011;53211;45.040;38.788;2023-02-01T10:28:44;666.50;;;161.15;;
66400;SDS011;53211;45.040;38.788;2023-02-01T12:25:44;649.90;;;173.00;;
66400;SDS011;53211;45.040;38.788;2023-02-01T12:52:32;649.40;;;173.50;;
66400;SDS011;53211;45.040;38.788;2023-02-01T12:57:42;645.10;;;172.90;;
66400;SDS011;53211;45.040;38.788;2023-02-01T13:03:11;648.17;;;171.97;;
66400;SDS011;53211;45.040;38.788;2023-02-01T13:08:47;648.95;;;174.00;;
66400;SDS011;53211;45.040;38.788;2023-02-01T13:16:40;648.25;;;171.15;;
66400;SDS011;53211;45.040;38.788;2023-02-01T13:21:46;649.50;;;171.65;;
66400;SDS011;53211;45.040;38.788;2023-02-01T13:24:31;678.10;;;161.38;;
66400;SDS011;53211;45.040;38.788;2023-02-01T13:27:04;671.20;;;161.05;;
66400;SDS011;53211;45.040;38.788;2023-02-01T13:29:33;672.40;;;161.03;;
66400;SDS011;53211;45.040;38.788;2023-02-01T13:32:13;670.45;;;159.90;;
66400;SDS011;53211;45.040;38.788;2023-02-01T13:42:51;674.20;;;159.63;;
66400;SDS011;53211;45.040;38.788;2023-02-01T13:45:27;674.65;;;159.35;;
66400;SDS011;53211;45.040;38.788;2023-02-01T13:47:58;672.25;;;159.35;;
66400;SDS011;53211;45.040;38.788;2023-02-01T13:50:30;669.10;;;160.00;;
66400;SDS011;53211;45.040;38.788;2023-02-01T13:55:38;666.10;;;162.00;;
66400;SDS011;53211;45.040;38.788;2023-02-01T14:00:46;668.60;;;161.30;;
66400;SDS011;53211;45.040;38.788;2023-02-01T14:03:17;663.90;;;165.80;;
66400;SDS011;53211;45.040;38.788;2023-02-01T14:08:14;666.30;;;163.60;;
66400;SDS011;53211;45.040;38.788;2023-02-01T14:11:02;657.35;;;160.30;;
66400;SDS011;53211;45.040;38.788;2023-02-01T14:13:35;663.50;;;162.30;;
66400;SDS011;53211;45.040;38.788;2023-02-01T14:23:57;658.05;;;164.45;;
66400;SDS011;53211;45.040;38.788;2023-02-01T14:26:45;656.40;;;164.90;;
66400;SDS011;53211;45.040;38.788;2023-02-01T14:31:47;663.00;;;161.40;;
66400;SDS011;53211;45.040;38.788;2023-02-01T14:34:24;646.87;;;170.37;;
66400;SDS011;53211;45.040;38.788;2023-02-01T14:39:26;647.95;;;170.15;;
66400;SDS011;53211;45.040;38.788;2023-02-01T14:41:56;646.40;;;168.20;;
66400;SDS011;53211;45.040;38.788;2023-02-01T14:44:32;646.70;;;169.45;;
66400;SDS011;53211;45.040;38.788;2023-02-01T14:49:38;649.20;;;167.70;;
66400;SDS011;53211;45.040;38.788;2023-02-01T14:52:14;649.60;;;167.80;;
66400;SDS011;53211;45.040;38.788;2023-02-01T14:54:46;648.70;;;165.65;;
66400;SDS011;53211;45.040;38.788;2023-02-01T14:57:20;646.60;;;166.65;;
66400;SDS011;53211;45.040;38.788;2023-02-01T14:59:55;644.65;;;166.30;;
66400;SDS011;53211;45.040;38.788;2023-02-01T15:02:26;645.38;;;163.88;;
66400;SDS011;53211;45.040;38.788;2023-02-01T15:04:56;645.90;;;165.70;;
66400;SDS011;53211;45.040;38.788;2023-02-01T15:07:25;647.65;;;167.00;;
66400;SDS011;53211;45.040;38.788;2023-02-01T15:09:54;646.50;;;166.60;;
66400;SDS011;53211;45.040;38.788;2023-02-01T15:12:27;650.93;;;167.03;;
66400;SDS011;53211;45.040;38.788;2023-02-01T15:15:10;646.50;;;165.50;;
66400;SDS011;53211;45.040;38.788;2023-02-01T15:17:40;659.00;;;160.90;;
66400;SDS011;53211;45.040;38.788;2023-02-01T15:22:42;666.83;;;162.53;;
66400;SDS011;53211;45.040;38.788;2023-02-01T15:25:29;663.70;;;160.60;;
66400;SDS011;53211;45.040;38.788;2023-02-01T15:27:57;657.27;;;157.90;;
66400;SDS011;53211;45.040;38.788;2023-02-01T15:30:28;662.00;;;161.20;;
66400;SDS011;53211;45.040;38.788;2023-02-01T15:46:36;661.50;;;158.40;;
66400;SDS011;53211;45.040;38.788;2023-02-01T15:49:16;662.60;;;160.10;;
66400;SDS011;53211;45.040;38.788;2023-02-01T15:51:47;665.05;;;163.05;;
66400;SDS011;53211;45.040;38.788;2023-02-01T15:54:22;663.40;;;159.00;;
66400;SDS011;53211;45.040;38.788;2023-02-01T15:56:52;669.07;;;161.17;;
66400;SDS011;53211;45.040;38.788;2023-02-01T16:00:04;672.07;;;162.40;;
66400;SDS011;53211;45.040;38.788;2023-02-01T16:05:54;667.30;;;160.65;;
66400;SDS011;53211;45.040;38.788;2023-02-01T16:08:21;663.40;;;161.97;;
66400;SDS011;53211;45.040;38.788;2023-02-01T16:10:50;666.10;;;162.35;;
66400;SDS011;53211;45.040;38.788;2023-02-01T16:13:19;666.20;;;161.00;;
66400;SDS011;53211;45.040;38.788;2023-02-01T16:15:46;665.33;;;159.80;;
66400;SDS011;53211;45.040;38.788;2023-02-01T16:18:13;666.10;;;160.60;;
66400;SDS011;53211;45.040;38.788;2023-02-01T16:20:40;664.30;;;161.10;;
66400;SDS011;53211;45.040;38.788;2023-02-01T16:23:07;680.88;;;160.23;;
66400;SDS011;53211;45.040;38.788;2023-02-01T16:25:35;676.35;;;164.80;;
66400;SDS011;53211;45.040;38.788;2023-02-01T16:28:01;661.75;;;166.25;;
66400;SDS011;53211;45.040;38.788;2023-02-01T16:30:27;665.50;;;162.95;;
66400;SDS011;53211;45.040;38.788;2023-02-01T16:32:54;660.80;;;158.90;;
66400;SDS011;53211;45.040;38.788;2023-02-01T16:35:29;663.13;;;161.20;;
66400;SDS011;53211;45.040;38.788;2023-02-01T16:38:11;670.55;;;161.70;;
66400;SDS011;53211;45.040;38.788;2023-02-01T16:40:38;665.00;;;161.00;;
66400;SDS011;53211;45.040;38.788;2023-02-01T16:43:18;667.45;;;162.70;;
66400;SDS011;53211;45.040;38.788;2023-02-01T16:45:47;659.60;;;161.35;;
66400;SDS011;53211;45.040;38.788;2023-02-01T16:48:30;662.10;;;160.30;;
66400;SDS011;53211;45.040;38.788;2023-02-01T16:51:00;666.67;;;164.05;;
66400;SDS011;53211;45.040;38.788;2023-02-01T16:53:29;663.60;;;161.30;;
66400;SDS011;53211;45.040;38.788;2023-02-01T16:55:56;665.95;;;166.82;;
66400;SDS011;53211;45.040;38.788;2023-02-01T16:58:23;669.77;;;170.37;;
66400;SDS011;53211;45.040;38.788;2023-02-01T17:00:49;658.70;;;162.40;;
66400;SDS011;53211;45.040;38.788;2023-02-01T17:03:19;665.40;;;165.40;;
66400;SDS011;53211;45.040;38.788;2023-02-01T17:05:47;608.20;;;187.70;;
66400;SDS011;53211;45.040;38.788;2023-02-01T17:08:17;614.10;;;190.70;;
66400;SDS011;53211;45.040;38.788;2023-02-01T17:10:47;615.20;;;186.75;;
66400;SDS011;53211;45.040;38.788;2023-02-01T17:13:14;589.10;;;213.60;;
66400;SDS011;53211;45.040;38.788;2023-02-01T17:15:44;614.15;;;180.00;;
66400;SDS011;53211;45.040;38.788;2023-02-01T17:18:15;620.70;;;184.60;;
66400;SDS011;53211;45.040;38.788;2023-02-01T17:20:42;622.70;;;183.50;;
66400;SDS011;53211;45.040;38.788;2023-02-01T17:23:08;625.25;;;179.40;;
66400;SDS011;53211;45.040;38.788;2023-02-01T17:25:36;621.00;;;176.53;;
66400;SDS011;53211;45.040;38.788;2023-02-01T17:28:01;619.35;;;177.20;;
66400;SDS011;53211;45.040;38.788;2023-02-01T17:30:27;626.10;;;181.45;;
66400;SDS011;53211;45.040;38.788;2023-02-01T17:32:53;618.90;;;176.20;;
66400;SDS011;53211;45.040;38.788;2023-02-01T17:35:24;627.40;;;181.70;;
66400;SDS011;53211;45.040;38.788;2023-02-01T17:37:52;625.47;;;177.93;;
66400;SDS011;53211;45.040;38.788;2023-02-01T17:40:18;624.47;;;177.57;;
66400;SDS011;53211;45.040;38.788;2023-02-01T17:42:44;622.60;;;178.80;;
66400;SDS011;53211;45.040;38.788;2023-02-01T17:45:23;629.35;;;179.00;;
66400;SDS011;53211;45.040;38.788;2023-02-01T17:48:02;625.05;;;175.45;;
66400;SDS011;53211;45.040;38.788;2023-02-01T17:50:31;622.90;;;173.05;;
66400;SDS011;53211;45.040;38.788;2023-02-01T17:52:59;623.30;;;172.55;;
66400;SDS011;53211;45.040;38.788;2023-02-01T17:55:33;625.80;;;174.30;;
66400;SDS011;53211;45.040;38.788;2023-02-01T17:58:00;627.67;;;176.33;;
66400;SDS011;53211;45.040;38.788;2023-02-01T18:00:27;623.40;;;173.50;;
66400;SDS011;53211;45.040;38.788;2023-02-01T18:02:53;626.77;;;182.00;;
66400;SDS011;53211;45.040;38.788;2023-02-01T18:05:28;624.63;;;177.37;;
66400;SDS011;53211;45.040;38.788;2023-02-01T18:08:02;620.50;;;173.90;;
66400;SDS011;53211;45.040;38.788;2023-02-01T18:10:28;622.25;;;177.35;;
66400;SDS011;53211;45.040;38.788;2023-02-01T18:12:55;626.85;;;179.65;;
66400;SDS011;53211;45.040;38.788;2023-02-01T18:15:23;627.60;;;179.40;;
66400;SDS011;53211;45.040;38.788;2023-02-01T18:40:13;622.00;;;173.80;;
66400;SDS011;53211;45.040;38.788;2023-02-01T18:42:46;631.80;;;180.30;;
66400;SDS011;53211;45.040;38.788;2023-02-01T18:48:02;617.40;;;171.70;;
66400;SDS011;53211;45.040;38.788;2023-02-01T18:50:29;621.80;;;172.45;;
66400;SDS011;53211;45.040;38.788;2023-02-01T18:52:57;613.25;;;172.90;;
66400;SDS011;53211;45.040;38.788;2023-02-01T18:55:25;625.85;;;175.60;;
66400;SDS011;53211;45.040;38.788;2023-02-01T18:57:53;615.30;;;170.75;;
66400;SDS011;53211;45.040;38.788;2023-02-01T19:00:20;618.73;;;169.83;;
66400;SDS011;53211;45.040;38.788;2023-02-01T19:02:47;614.60;;;167.50;;
66400;SDS011;53211;45.040;38.788;2023-02-01T19:05:14;619.77;;;170.90;;
66400;SDS011;53211;45.040;38.788;2023-02-01T19:07:41;616.05;;;166.65;;
66400;SDS011;53211;45.040;38.788;2023-02-01T19:10:09;620.20;;;170.40;;
66400;SDS011;53211;45.040;38.788;2023-02-01T19:12:37;621.55;;;173.10;;
66400;SDS011;53211;45.040;38.788;2023-02-01T19:15:05;617.85;;;172.95;;
66400;SDS011;53211;45.040;38.788;2023-02-01T19:17:33;609.60;;;169.30;;
66400;SDS011;53211;45.040;38.788;2023-02-01T19:19:59;619.10;;;174.55;;
66400;SDS011;53211;45.040;38.788;2023-02-01T19:22:25;610.93;;;165.67;;
66400;SDS011;53211;45.040;38.788;2023-02-01T19:24:54;612.87;;;166.10;;
66400;SDS011;53211;45.040;38.788;2023-02-01T19:27:21;612.50;;;167.20;;
66400;SDS011;53211;45.040;38.788;2023-02-01T19:29:47;619.35;;;172.15;;
66400;SDS011;53211;45.040;38.788;2023-02-01T19:32:14;612.00;;;166.20;;